Palm Springs (PSP/KPSP)

Information

Location
Palm Springs, CA
Local Time
15:27 / 3:27 pm
GMT Time
22:27 / 10:27 pm
Gates
Unassigned
No FAA reported delays
METAR KPSP 272153Z 33008KT 10SM CLR 28/01 A2980 RMK AO2 PK WND 33027/2103 SLP090 T02780011
TAF KPSP 271725Z 2718/2818 32015G25KT P6SM SKC FM280600 31010KT P6SM SKC WS020/01025KT FM281700 36015G25KT P6SM SKC
  • No charts available